createdAt,value
2023-05-24T00:01:17.121Z,3.88
2023-05-24T00:03:47.776Z,4.30
2023-05-24T00:06:15.364Z,4.47
2023-05-24T00:08:43.018Z,4.78
2023-05-24T00:11:11.891Z,5.35
2023-05-24T00:13:39.438Z,4.57
2023-05-24T00:16:07.150Z,5.35
2023-05-24T00:18:34.803Z,4.85
2023-05-24T00:21:02.298Z,4.75
2023-05-24T00:23:29.813Z,4.00
2023-05-24T00:25:57.397Z,3.15
2023-05-24T00:28:25.158Z,3.92
2023-05-24T00:30:52.871Z,4.65
2023-05-24T00:33:24.073Z,5.38
2023-05-24T00:35:57.202Z,5.10
2023-05-24T00:38:25.296Z,4.90
2023-05-24T00:40:53.025Z,4.47
2023-05-24T00:43:20.550Z,4.57
2023-05-24T00:45:48.531Z,4.40
2023-05-24T00:48:16.213Z,5.28
2023-05-24T00:50:43.939Z,5.13
2023-05-24T00:53:12.079Z,4.80
2023-05-24T00:55:39.713Z,5.28
2023-05-24T00:58:07.342Z,5.20
2023-05-24T01:00:34.879Z,4.97
2023-05-24T01:03:03.257Z,4.40
2023-05-24T01:05:30.975Z,5.47
2023-05-24T01:07:58.628Z,5.30
2023-05-24T01:10:48.034Z,5.93
2023-05-24T01:13:28.226Z,4.55
2023-05-24T01:16:01.404Z,4.95
2023-05-24T01:18:32.363Z,5.18
2023-05-24T01:21:19.962Z,5.18
2023-05-24T01:23:59.936Z,4.95
2023-05-24T01:26:40.009Z,4.78
2023-05-24T01:29:08.153Z,5.18
2023-05-24T01:31:37.456Z,5.50
2023-05-24T01:34:05.100Z,4.63
2023-05-24T01:36:32.604Z,5.03
2023-05-24T01:39:00.062Z,6.32
2023-05-24T01:41:27.756Z,5.10
2023-05-24T01:44:04.320Z,5.03
2023-05-24T01:46:38.858Z,4.82
2023-05-24T01:49:12.814Z,5.03
2023-05-24T01:52:00.498Z,4.47
2023-05-24T01:54:29.326Z,5.10
2023-05-24T01:56:58.673Z,4.65
2023-05-24T01:59:27.404Z,5.80
2023-05-24T02:01:55.578Z,5.97
2023-05-24T02:04:23.194Z,5.07
2023-05-24T02:06:50.991Z,5.00
2023-05-24T02:09:18.720Z,5.05
2023-05-24T02:11:46.242Z,5.13
2023-05-24T02:14:14.361Z,4.75
2023-05-24T02:16:43.361Z,6.28
2023-05-24T02:19:13.619Z,5.40
2023-05-24T02:21:41.945Z,5.90
2023-05-24T02:24:12.106Z,5.47
2023-05-24T02:26:39.810Z,5.40
2023-05-24T02:29:07.537Z,6.45
2023-05-24T02:31:35.134Z,5.07
2023-05-24T02:34:03.470Z,5.75
2023-05-24T02:36:33.242Z,5.82
2023-05-24T02:39:03.962Z,4.40
2023-05-24T02:41:31.689Z,5.78
2023-05-24T02:43:59.219Z,6.30
2023-05-24T02:46:26.807Z,6.20
2023-05-24T02:48:54.336Z,6.05
2023-05-24T02:51:21.889Z,7.32
2023-05-24T02:53:49.959Z,5.82
2023-05-24T02:56:21.070Z,6.03
2023-05-24T02:58:48.852Z,6.18
2023-05-24T03:01:16.399Z,4.47
2023-05-24T03:03:44.168Z,5.85
2023-05-24T03:06:14.637Z,5.55
2023-05-24T03:08:42.552Z,6.55
2023-05-24T03:11:10.106Z,5.68
2023-05-24T03:13:37.624Z,6.03
2023-05-24T03:16:05.320Z,5.50
2023-05-24T03:18:32.887Z,5.18
2023-05-24T03:21:00.629Z,6.82
2023-05-24T03:23:28.324Z,6.38
2023-05-24T03:25:55.844Z,5.97
2023-05-24T03:28:23.351Z,6.25
2023-05-24T03:30:51.156Z,6.53
2023-05-24T03:33:18.850Z,5.05
2023-05-24T03:35:46.419Z,5.68
2023-05-24T03:38:13.915Z,5.03
2023-05-24T03:40:41.985Z,6.75
2023-05-24T03:43:09.753Z,5.85
2023-05-24T03:45:39.757Z,6.35
2023-05-24T03:48:08.085Z,6.18
2023-05-24T03:50:35.770Z,6.47
2023-05-24T03:53:03.347Z,5.18
2023-05-24T03:55:30.925Z,5.63
2023-05-24T03:57:58.441Z,5.65
2023-05-24T04:00:25.975Z,6.22
2023-05-24T04:02:53.995Z,5.97
2023-05-24T04:05:21.680Z,4.53
2023-05-24T04:07:52.351Z,5.35
2023-05-24T04:10:19.827Z,7.60
2023-05-24T04:12:48.148Z,5.88
2023-05-24T04:15:15.980Z,6.72
2023-05-24T04:17:44.776Z,6.75
2023-05-24T04:20:13.447Z,5.82
2023-05-24T04:22:42.176Z,5.43
2023-05-24T04:25:10.573Z,6.85
2023-05-24T04:27:38.175Z,7.47
2023-05-24T04:30:06.289Z,7.25
2023-05-24T04:32:33.831Z,5.57
2023-05-24T04:35:03.409Z,6.45
2023-05-24T04:37:34.839Z,7.53
2023-05-24T04:40:04.503Z,5.90
2023-05-24T04:42:35.150Z,6.10
2023-05-24T04:45:03.557Z,5.68
2023-05-24T04:47:31.302Z,5.90
2023-05-24T04:49:58.841Z,6.10
2023-05-24T04:52:26.477Z,7.00
2023-05-24T04:54:55.916Z,6.38
2023-05-24T04:57:23.556Z,5.80
2023-05-24T04:59:53.719Z,7.00
2023-05-24T05:02:23.362Z,5.97
2023-05-24T05:04:50.983Z,5.85
2023-05-24T05:07:18.696Z,6.80
2023-05-24T05:09:46.125Z,6.50
2023-05-24T05:12:14.344Z,5.50
2023-05-24T05:14:42.009Z,6.82
2023-05-24T05:17:13.389Z,6.78
2023-05-24T05:19:41.112Z,5.75
2023-05-24T05:22:08.604Z,6.22
2023-05-24T05:24:36.272Z,6.55
2023-05-24T05:27:03.863Z,7.03
2023-05-24T05:29:31.458Z,6.15
2023-05-24T05:31:59.096Z,6.85
2023-05-24T05:34:26.840Z,8.02
2023-05-24T05:36:54.337Z,5.50
2023-05-24T05:39:21.875Z,6.25
2023-05-24T05:41:49.430Z,6.15
2023-05-24T05:44:17.213Z,5.85
2023-05-24T05:46:53.398Z,5.53
2023-05-24T05:49:21.325Z,6.95
2023-05-24T05:51:48.803Z,6.18
2023-05-24T05:54:18.894Z,7.38
2023-05-24T05:56:49.180Z,6.05
2023-05-24T05:59:16.885Z,5.75
2023-05-24T06:01:47.723Z,6.32
2023-05-24T06:04:16.044Z,7.88
2023-05-24T06:06:46.329Z,6.47
2023-05-24T06:09:13.896Z,5.82
2023-05-24T06:11:45.374Z,6.60
2023-05-24T06:14:14.221Z,6.50
2023-05-24T06:16:44.084Z,6.70
2023-05-24T06:19:11.768Z,6.95
2023-05-24T06:21:48.268Z,6.47
2023-05-24T06:24:17.748Z,5.97
2023-05-24T06:26:46.158Z,7.28
2023-05-24T06:29:14.717Z,5.68
2023-05-24T06:31:42.470Z,5.53
2023-05-24T06:34:10.070Z,7.60
2023-05-24T06:36:42.295Z,4.85
2023-05-24T06:39:11.427Z,6.97
2023-05-24T06:41:39.661Z,6.30
2023-05-24T06:44:07.411Z,5.95
2023-05-24T06:46:35.111Z,6.10
2023-05-24T06:49:02.759Z,6.53
2023-05-24T06:51:31.014Z,6.35
2023-05-24T06:53:58.590Z,6.38
2023-05-24T06:56:27.366Z,6.80
2023-05-24T06:58:57.850Z,6.75
2023-05-24T07:01:25.413Z,7.25
2023-05-24T07:03:53.322Z,6.80
2023-05-24T07:06:20.859Z,8.30
2023-05-24T07:08:48.489Z,6.68
2023-05-24T07:11:16.707Z,9.13
2023-05-24T07:13:44.226Z,8.25
2023-05-24T07:16:12.450Z,6.72
2023-05-24T07:18:42.255Z,8.95
2023-05-24T07:21:09.919Z,7.82
2023-05-24T07:23:38.266Z,8.48
2023-05-24T07:26:06.258Z,7.80
2023-05-24T07:28:33.888Z,8.27
2023-05-24T07:31:01.545Z,8.07
2023-05-24T07:33:29.993Z,7.45
2023-05-24T07:35:57.717Z,7.15
2023-05-24T07:38:25.461Z,8.88
2023-05-24T07:40:53.686Z,8.63
2023-05-24T07:43:21.233Z,7.63
2023-05-24T07:45:48.713Z,8.50
2023-05-24T07:48:16.588Z,5.88
2023-05-24T07:50:49.577Z,7.03
2023-05-24T07:53:17.545Z,7.05
2023-05-24T07:55:47.960Z,8.63
2023-05-24T07:58:15.614Z,6.85
2023-05-24T08:00:44.396Z,7.63
2023-05-24T08:03:15.161Z,7.35
2023-05-24T08:05:43.374Z,6.68
2023-05-24T08:08:11.487Z,7.22
2023-05-24T08:10:39.131Z,9.02
2023-05-24T08:13:06.921Z,9.00
2023-05-24T08:15:37.155Z,9.18
2023-05-24T08:18:08.350Z,8.48
2023-05-24T08:20:37.485Z,7.25
2023-05-24T08:23:05.087Z,7.53
2023-05-24T08:25:32.687Z,8.48
2023-05-24T08:28:00.352Z,7.93
2023-05-24T08:30:28.108Z,8.07
2023-05-24T08:32:55.668Z,7.50
2023-05-24T08:35:23.165Z,7.15
2023-05-24T08:37:53.081Z,9.38
2023-05-24T08:40:20.766Z,8.65
2023-05-24T08:42:48.583Z,6.68
2023-05-24T08:45:16.537Z,7.95
2023-05-24T08:47:44.366Z,7.53
2023-05-24T08:50:12.106Z,8.40
2023-05-24T08:52:40.401Z,7.43
2023-05-24T08:55:08.469Z,9.18
2023-05-24T08:57:40.167Z,8.13
2023-05-24T09:00:12.361Z,7.25
2023-05-24T09:02:41.397Z,8.80
2023-05-24T09:05:13.102Z,8.10
2023-05-24T09:07:41.186Z,7.50
2023-05-24T09:10:10.568Z,9.30
2023-05-24T09:12:39.517Z,8.52
2023-05-24T09:15:08.511Z,8.77
2023-05-24T09:17:37.651Z,8.30
2023-05-24T09:20:07.994Z,9.63
2023-05-24T09:22:40.685Z,8.02
2023-05-24T09:25:10.507Z,8.10
2023-05-24T09:27:39.416Z,7.78
2023-05-24T09:30:11.259Z,10.65
2023-05-24T09:32:39.212Z,9.73
2023-05-24T09:35:09.139Z,8.63
2023-05-24T09:37:39.260Z,8.93
2023-05-24T09:40:07.810Z,7.97
2023-05-24T09:42:35.364Z,8.52
2023-05-24T09:45:05.870Z,7.35
2023-05-24T09:47:34.212Z,8.52
2023-05-24T09:50:03.193Z,8.32
2023-05-24T09:52:31.758Z,7.40
2023-05-24T09:55:00.927Z,9.45
2023-05-24T09:57:28.872Z,8.38
2023-05-24T09:59:57.376Z,8.02
2023-05-24T10:02:26.965Z,8.43
2023-05-24T10:05:00.139Z,9.05
2023-05-24T10:07:27.952Z,7.18
2023-05-24T10:09:55.930Z,7.07
2023-05-24T10:12:26.871Z,8.32
2023-05-24T10:14:58.156Z,8.98
2023-05-24T10:17:28.676Z,8.25
2023-05-24T10:19:56.369Z,9.38
2023-05-24T10:22:26.083Z,9.18
2023-05-24T10:24:59.738Z,9.38
2023-05-24T10:27:33.776Z,8.65
2023-05-24T10:30:07.011Z,9.20
2023-05-24T10:32:38.593Z,10.05
2023-05-24T10:35:07.157Z,9.10
2023-05-24T10:37:34.986Z,10.35
2023-05-24T10:40:02.929Z,8.88
2023-05-24T10:42:32.753Z,11.55
2023-05-24T10:45:00.296Z,10.20
2023-05-24T10:47:30.624Z,10.07
2023-05-24T10:50:05.861Z,8.55
2023-05-24T10:52:37.067Z,9.10
2023-05-24T10:55:10.261Z,10.77
2023-05-24T10:57:38.873Z,11.63
2023-05-24T11:00:34.010Z,13.60
2023-05-24T11:03:07.275Z,11.18
2023-05-24T11:05:55.379Z,8.90
2023-05-24T11:08:27.144Z,11.02
2023-05-24T11:11:19.025Z,9.57
2023-05-24T11:13:56.675Z,11.93
2023-05-24T11:16:34.978Z,10.73
2023-05-24T11:19:12.343Z,11.27
2023-05-24T11:21:40.682Z,10.73
2023-05-24T11:24:08.400Z,9.93
2023-05-24T11:26:36.709Z,9.60
2023-05-24T11:29:06.231Z,9.98
2023-05-24T11:31:33.823Z,10.82
2023-05-24T11:34:02.453Z,9.95
2023-05-24T11:36:30.713Z,10.55
2023-05-24T11:38:58.483Z,10.82
2023-05-24T11:41:26.288Z,10.48
2023-05-24T11:43:53.889Z,8.32
2023-05-24T11:46:21.618Z,10.77
2023-05-24T11:48:58.725Z,10.02
2023-05-24T11:51:27.432Z,10.05
2023-05-24T11:53:55.490Z,9.52
2023-05-24T11:56:23.937Z,8.38
2023-05-24T11:58:51.783Z,9.73
2023-05-24T12:01:26.379Z,12.20
2023-05-24T12:03:55.182Z,9.25
2023-05-24T12:06:23.571Z,8.60
2023-05-24T12:08:51.097Z,10.13
2023-05-24T12:11:18.703Z,11.20
2023-05-24T12:13:46.513Z,9.65
2023-05-24T12:16:15.231Z,30.73
2023-05-24T12:18:55.232Z,11.20
2023-05-24T12:21:31.367Z,13.82
2023-05-24T12:23:58.908Z,9.13
2023-05-24T12:26:27.417Z,10.45
2023-05-24T12:28:56.268Z,15.27
2023-05-24T12:31:23.802Z,9.65
2023-05-24T12:33:53.494Z,14.82
2023-05-24T12:36:21.788Z,10.65
2023-05-24T12:38:49.337Z,11.27
2023-05-24T12:41:16.879Z,12.55
2023-05-24T12:43:45.104Z,10.90
2023-05-24T12:46:13.789Z,12.27
2023-05-24T12:48:41.580Z,12.90
2023-05-24T12:51:09.407Z,11.25
2023-05-24T12:53:37.234Z,13.02
2023-05-24T12:56:04.896Z,10.07
2023-05-24T12:58:32.594Z,16.02
2023-05-24T13:01:00.349Z,11.43
2023-05-24T13:03:28.457Z,13.75
2023-05-24T13:05:56.383Z,11.52
2023-05-24T13:08:23.942Z,33.80
2023-05-24T13:10:51.466Z,11.30
2023-05-24T13:13:19.207Z,11.57
2023-05-24T13:15:46.758Z,11.27
2023-05-24T13:18:14.601Z,12.38
2023-05-24T13:20:42.759Z,13.13
2023-05-24T13:23:10.572Z,11.80
2023-05-24T13:25:38.082Z,13.57
2023-05-24T13:28:05.875Z,11.95
2023-05-24T13:30:33.418Z,29.25
2023-05-24T13:33:01.137Z,10.30
2023-05-24T13:35:31.860Z,7.15
2023-05-24T13:37:59.519Z,20.88
2023-05-24T13:40:27.710Z,11.50
2023-05-24T13:42:56.364Z,11.60
2023-05-24T13:45:24.120Z,10.77
2023-05-24T13:47:52.402Z,9.63
2023-05-24T13:50:21.182Z,10.48
2023-05-24T13:52:48.689Z,15.90
2023-05-24T13:55:16.255Z,7.35
2023-05-24T13:57:51.845Z,9.60
2023-05-24T14:00:20.901Z,9.27
2023-05-24T14:02:48.933Z,8.82
2023-05-24T14:07:47.061Z,9.35
2023-05-24T14:10:14.889Z,11.20
2023-05-24T14:12:43.408Z,10.20
2023-05-24T14:15:11.287Z,10.35
2023-05-24T14:17:38.912Z,8.27
2023-05-24T14:20:07.949Z,12.13
2023-05-24T14:22:35.479Z,9.30
2023-05-24T14:25:03.081Z,12.45
2023-05-24T14:27:30.584Z,12.57
2023-05-24T14:29:58.075Z,12.35
2023-05-24T14:32:25.711Z,11.15
2023-05-24T14:34:54.736Z,11.98
2023-05-24T14:37:23.096Z,18.00
2023-05-24T14:39:50.673Z,12.32
2023-05-24T14:42:18.326Z,11.07
2023-05-24T14:44:45.835Z,13.45
2023-05-24T14:47:13.367Z,12.80
2023-05-24T14:49:41.170Z,11.82
2023-05-24T14:52:08.737Z,12.15
2023-05-24T14:54:36.564Z,13.02
2023-05-24T14:57:04.182Z,10.32
2023-05-24T14:59:31.707Z,12.02
2023-05-24T15:01:59.485Z,11.27
2023-05-24T15:04:27.731Z,12.05
2023-05-24T15:06:55.261Z,12.90
2023-05-24T15:09:22.979Z,11.27
2023-05-24T15:11:50.484Z,11.45
2023-05-24T15:14:18.157Z,13.45
2023-05-24T15:16:45.863Z,12.05
2023-05-24T15:19:13.960Z,13.68
2023-05-24T15:21:41.592Z,12.13
2023-05-24T15:24:09.280Z,11.13
2023-05-24T15:26:37.183Z,11.55
2023-05-24T15:29:05.337Z,10.77
2023-05-24T15:31:33.115Z,13.40
2023-05-24T15:34:00.644Z,13.20
2023-05-24T15:36:28.157Z,14.50
2023-05-24T15:38:56.032Z,10.93
2023-05-24T15:41:23.718Z,19.52
2023-05-24T15:43:54.289Z,10.20
2023-05-24T15:46:22.419Z,15.82
2023-05-24T15:48:49.971Z,13.40
2023-05-24T15:53:51.478Z,10.10
2023-05-24T15:56:18.972Z,8.43
2023-05-24T15:58:47.140Z,14.82
2023-05-24T16:01:14.697Z,8.90
2023-05-24T16:03:42.530Z,16.20
2023-05-24T16:06:10.245Z,7.00
2023-05-24T16:08:37.721Z,6.93
2023-05-24T16:11:08.826Z,5.28
2023-05-24T16:13:36.842Z,5.40
2023-05-24T16:16:04.428Z,7.35
2023-05-24T16:18:35.013Z,6.65
2023-05-24T16:21:02.509Z,7.70
2023-05-24T16:23:30.059Z,6.15
2023-05-24T16:25:57.602Z,7.65
2023-05-24T16:28:25.660Z,6.28
2023-05-24T16:30:56.445Z,5.32
2023-05-24T16:33:25.207Z,6.38
2023-05-24T16:35:56.634Z,49.80
2023-05-24T16:38:25.228Z,6.35
2023-05-24T16:40:53.509Z,6.00
2023-05-24T16:43:21.618Z,6.57
2023-05-24T16:45:49.974Z,6.57
2023-05-24T16:48:19.012Z,4.82
2023-05-24T16:50:46.830Z,7.78
2023-05-24T16:53:14.325Z,5.20
2023-05-24T16:55:42.004Z,11.38
2023-05-24T16:58:09.539Z,7.97
2023-05-24T17:00:37.193Z,6.00
2023-05-24T17:03:08.721Z,5.45
2023-05-24T17:05:39.225Z,5.07
2023-05-24T17:08:09.470Z,4.57
2023-05-24T17:10:37.251Z,6.40
2023-05-24T17:13:04.829Z,5.32
2023-05-24T17:15:32.423Z,4.70
2023-05-24T17:18:00.341Z,9.57
2023-05-24T17:20:28.038Z,3.92
2023-05-24T17:22:56.404Z,6.43
2023-05-24T17:25:23.863Z,5.00
2023-05-24T17:27:51.454Z,4.03
2023-05-24T17:30:20.437Z,5.22
2023-05-24T17:32:47.993Z,5.20
2023-05-24T17:35:15.557Z,5.88
2023-05-24T17:37:43.073Z,10.75
2023-05-24T17:40:11.287Z,7.82
2023-05-24T17:42:38.893Z,12.48
2023-05-24T17:45:07.371Z,5.30
2023-05-24T17:47:34.930Z,4.93
2023-05-24T17:50:02.972Z,4.15
2023-05-24T17:52:30.513Z,5.95
2023-05-24T17:54:58.276Z,4.20
2023-05-24T17:57:27.661Z,3.67
2023-05-24T17:59:55.156Z,5.80
2023-05-24T18:02:22.878Z,6.78
2023-05-24T18:04:50.657Z,5.30
2023-05-24T18:07:19.138Z,8.95
2023-05-24T18:09:46.665Z,5.70
2023-05-24T18:12:14.438Z,10.93
2023-05-24T18:14:42.976Z,5.10
2023-05-24T18:17:10.611Z,6.28
2023-05-24T18:19:38.341Z,11.15
2023-05-24T18:22:06.816Z,6.68
2023-05-24T18:24:34.483Z,6.75
2023-05-24T18:27:03.503Z,5.43
2023-05-24T18:29:31.081Z,6.57
2023-05-24T18:31:58.620Z,5.05
2023-05-24T18:34:26.240Z,5.05
2023-05-24T18:36:55.369Z,5.25
2023-05-24T18:39:22.910Z,5.32
2023-05-24T18:41:50.516Z,9.10
2023-05-24T18:44:18.173Z,5.95
2023-05-24T18:46:48.817Z,5.45
2023-05-24T18:49:18.326Z,5.97
2023-05-24T18:51:45.776Z,6.10
2023-05-24T18:54:14.330Z,5.45
2023-05-24T18:56:41.917Z,2.95
2023-05-24T18:59:11.730Z,4.38
2023-05-24T19:01:40.252Z,3.92
2023-05-24T19:04:07.932Z,3.25
2023-05-24T19:06:35.488Z,4.20
2023-05-24T19:09:03.267Z,5.88
2023-05-24T19:11:30.993Z,5.40
2023-05-24T19:13:58.742Z,3.90
2023-05-24T19:16:26.245Z,6.32
2023-05-24T19:18:53.791Z,3.70
2023-05-24T19:21:24.278Z,3.17
2023-05-24T19:23:52.860Z,3.28
2023-05-24T19:26:20.676Z,2.88
2023-05-24T19:28:52.566Z,4.75
2023-05-24T19:31:20.311Z,3.40
2023-05-24T19:34:00.011Z,4.32
2023-05-24T19:36:29.315Z,2.65
2023-05-24T19:38:57.067Z,3.95
2023-05-24T19:41:24.625Z,3.97
2023-05-24T19:43:53.526Z,2.88
2023-05-24T19:46:23.964Z,2.53
2023-05-24T19:48:51.799Z,2.40
2023-05-24T19:51:20.487Z,2.10
2023-05-24T19:53:48.119Z,2.75
2023-05-24T19:56:15.686Z,4.18
2023-05-24T19:58:44.705Z,2.17
2023-05-24T20:01:13.057Z,2.42
2023-05-24T20:03:40.776Z,2.00
2023-05-24T20:06:08.413Z,2.42
2023-05-24T20:08:36.551Z,2.35
2023-05-24T20:11:04.467Z,3.05
2023-05-24T20:13:32.009Z,2.05
2023-05-24T20:15:59.835Z,2.60
2023-05-24T20:18:27.472Z,6.60
2023-05-24T20:21:00.780Z,1.30
2023-05-24T20:23:28.529Z,1.10
2023-05-24T20:25:56.573Z,1.77
2023-05-24T20:28:30.798Z,2.40
2023-05-24T20:30:59.654Z,2.35
2023-05-24T20:33:28.018Z,2.72
2023-05-24T20:35:55.652Z,4.00
2023-05-24T20:38:24.471Z,1.50
2023-05-24T20:40:52.133Z,1.90
2023-05-24T20:43:19.611Z,1.70
2023-05-24T20:45:47.845Z,1.80
2023-05-24T20:48:15.692Z,2.03
2023-05-24T20:50:43.643Z,1.92
2023-05-24T20:53:11.173Z,1.90
2023-05-24T20:55:38.749Z,1.75
2023-05-24T20:58:08.609Z,2.28
2023-05-24T21:00:38.259Z,2.08
2023-05-24T21:03:09.507Z,1.58
2023-05-24T21:05:38.832Z,1.10
2023-05-24T21:08:06.691Z,2.25
2023-05-24T21:10:34.287Z,1.42
2023-05-24T21:13:02.027Z,1.70
2023-05-24T21:15:29.625Z,1.45
2023-05-24T21:17:57.191Z,2.97
2023-05-24T21:20:25.083Z,1.70
2023-05-24T21:22:52.925Z,2.22
2023-05-24T21:25:20.516Z,4.13
2023-05-24T21:27:50.599Z,2.10
2023-05-24T21:30:18.119Z,1.98
2023-05-24T21:32:47.893Z,1.25
2023-05-24T21:35:15.452Z,2.25
2023-05-24T21:37:43.247Z,2.38
2023-05-24T21:40:10.970Z,1.67
2023-05-24T21:42:38.650Z,2.63
2023-05-24T21:45:07.019Z,2.58
2023-05-24T21:47:36.199Z,3.65
2023-05-24T21:50:04.098Z,1.90
2023-05-24T21:52:31.654Z,1.25
2023-05-24T21:54:59.176Z,1.25
2023-05-24T21:57:26.754Z,1.58
2023-05-24T21:59:54.323Z,1.88
2023-05-24T22:02:22.194Z,2.97
2023-05-24T22:04:50.176Z,0.70
2023-05-24T22:07:17.778Z,1.70
2023-05-24T22:09:48.224Z,2.67
2023-05-24T22:12:15.793Z,1.25
2023-05-24T22:14:43.323Z,1.20
2023-05-24T22:17:11.922Z,1.67
2023-05-24T22:19:42.120Z,1.55
2023-05-24T22:22:10.521Z,1.45
2023-05-24T22:24:38.251Z,1.40
2023-05-24T22:27:06.113Z,1.17
2023-05-24T22:29:33.644Z,1.45
2023-05-24T22:32:01.372Z,0.98
2023-05-24T22:34:29.610Z,1.23
2023-05-24T22:36:57.956Z,1.05
2023-05-24T22:39:25.486Z,1.17
2023-05-24T22:41:53.543Z,2.80
2023-05-24T22:44:21.437Z,0.88
2023-05-24T22:46:54.127Z,1.20
2023-05-24T22:51:51.334Z,0.95
2023-05-24T22:54:21.171Z,1.27
2023-05-24T22:56:48.814Z,0.70
2023-05-24T22:59:16.348Z,0.82
2023-05-24T23:01:45.394Z,1.27
2023-05-24T23:04:21.078Z,0.80
2023-05-24T23:06:50.121Z,1.10
2023-05-24T23:09:18.264Z,1.08
2023-05-24T23:11:46.758Z,1.02
2023-05-24T23:14:14.914Z,0.85
2023-05-24T23:16:46.129Z,1.17
2023-05-24T23:19:19.129Z,0.98
2023-05-24T23:21:46.788Z,1.27
2023-05-24T23:24:16.502Z,1.35
2023-05-24T23:26:44.176Z,1.27
2023-05-24T23:29:11.889Z,0.98
2023-05-24T23:31:39.610Z,1.17
2023-05-24T23:34:08.044Z,1.30
2023-05-24T23:36:35.631Z,1.00
2023-05-24T23:39:03.183Z,1.35
2023-05-24T23:41:31.409Z,0.98
2023-05-24T23:43:58.904Z,0.82
2023-05-24T23:46:29.478Z,1.00
2023-05-24T23:48:57.130Z,0.85
2023-05-24T23:51:25.029Z,1.75
2023-05-24T23:53:56.020Z,0.90
2023-05-24T23:56:24.108Z,1.27
2023-05-24T23:58:52.406Z,0.80
